Time;durP1;ratioP1;P1;durP2;ratioP2;P2;SDS_P1;SDS_P2;PMS_P1;PMS_P2;Temp;Humidity;BMP_temperature;BMP_pressure;BME280_temperature;BME280_humidity;BME280_pressure;Samples;Min_cycle;Max_cycle;Signal;HPM_P1;HPM_P2
2022/07/08 00:00:25;;;;;;;4.15;3.10;;;16.80;99.90;;;;;;5053672;28;20071;-78
2022/07/08 00:02:52;;;;;;;5.88;2.80;;;16.70;99.90;;;;;;5053134;28;20045;-78
2022/07/08 00:05:18;;;;;;;6.88;2.85;;;16.70;99.90;;;;;;5052301;28;20091;-77
2022/07/08 00:07:45;;;;;;;4.68;2.63;;;16.70;99.90;;;;;;5051755;28;20477;-78
2022/07/08 00:10:12;;;;;;;4.63;3.28;;;16.60;99.90;;;;;;5052836;28;20139;-78
2022/07/08 00:12:40;;;;;;;4.07;2.92;;;16.60;99.90;;;;;;5052390;28;20043;-78
2022/07/08 00:15:09;;;;;;;5.10;2.95;;;16.60;99.90;;;;;;5052819;28;20041;-77
2022/07/08 00:17:36;;;;;;;5.57;3.13;;;16.60;99.90;;;;;;5053546;28;20098;-77
2022/07/08 00:20:04;;;;;;;5.85;3.30;;;16.50;99.90;;;;;;5053921;28;20037;-77
2022/07/08 00:22:31;;;;;;;5.55;3.45;;;16.50;99.90;;;;;;5035592;28;20048;-78
2022/07/08 00:24:58;;;;;;;4.45;3.20;;;16.50;99.90;;;;;;5052959;28;20045;-77
2022/07/08 00:27:25;;;;;;;4.65;3.33;;;16.50;99.90;;;;;;5052701;28;20045;-77
2022/07/08 00:29:52;;;;;;;5.63;3.35;;;16.40;99.90;;;;;;5052980;28;20053;-78
2022/07/08 00:32:19;;;;;;;5.22;3.40;;;16.40;99.90;;;;;;5053111;28;20041;-77
2022/07/08 00:34:49;;;;;;;7.32;3.80;;;16.40;99.90;;;;;;5053220;28;20064;-77
2022/07/08 00:37:16;;;;;;;4.30;3.22;;;16.40;99.90;;;;;;5051529;28;20052;-78
2022/07/08 00:39:43;;;;;;;6.32;3.42;;;16.30;99.90;;;;;;5051567;28;20041;-77
2022/07/08 00:42:10;;;;;;;4.88;3.45;;;16.30;99.90;;;;;;5052474;28;20041;-76
2022/07/08 00:44:37;;;;;;;4.55;3.30;;;16.30;99.90;;;;;;5052990;28;20045;-76
2022/07/08 00:47:04;;;;;;;4.22;3.25;;;16.30;99.90;;;;;;5052399;28;20048;-76
2022/07/08 00:49:30;;;;;;;8.93;3.90;;;16.30;99.90;;;;;;5053360;28;20045;-76
2022/07/08 00:52:00;;;;;;;4.63;3.40;;;16.20;99.90;;;;;;5053050;28;20037;-76
2022/07/08 00:54:27;;;;;;;5.95;3.78;;;16.20;99.90;;;;;;5056082;28;20040;-76
2022/07/08 00:56:54;;;;;;;3.88;2.92;;;16.20;99.90;;;;;;5054705;28;20040;-77
2022/07/08 00:59:21;;;;;;;5.05;3.50;;;16.20;99.90;;;;;;5056340;28;20127;-77
2022/07/08 01:01:48;;;;;;;4.20;3.20;;;16.10;99.90;;;;;;5054809;28;20472;-78
2022/07/08 01:04:15;;;;;;;12.38;4.05;;;16.10;99.90;;;;;;5054924;28;20041;-78
2022/07/08 01:06:42;;;;;;;4.63;3.75;;;16.10;99.90;;;;;;5056351;28;20469;-77
2022/07/08 01:09:10;;;;;;;5.03;3.60;;;16.00;99.90;;;;;;5038998;28;20049;-77
2022/07/08 01:11:36;;;;;;;6.22;3.92;;;16.00;99.90;;;;;;5055820;28;20045;-76
2022/07/08 01:14:04;;;;;;;7.63;4.13;;;16.00;99.90;;;;;;5055726;28;20037;-77
2022/07/08 01:16:31;;;;;;;5.53;3.90;;;15.90;99.90;;;;;;5055916;28;20465;-77
2022/07/08 01:18:57;;;;;;;5.28;3.63;;;16.00;99.90;;;;;;5056634;28;20040;-77
2022/07/08 01:21:24;;;;;;;4.32;2.97;;;15.90;99.90;;;;;;5056676;28;20056;-78
2022/07/08 01:23:51;;;;;;;4.22;3.42;;;15.90;99.90;;;;;;5055816;28;20045;-78
2022/07/08 01:26:19;;;;;;;4.18;3.22;;;15.80;99.90;;;;;;5056211;28;20052;-77
2022/07/08 01:28:46;;;;;;;4.80;4.00;;;15.80;99.90;;;;;;5054647;28;20044;-77
2022/07/08 01:31:12;;;;;;;5.07;3.05;;;15.80;99.90;;;;;;5057226;28;20041;-77
2022/07/08 01:33:39;;;;;;;5.40;3.72;;;15.80;99.90;;;;;;5056200;28;20044;-77
2022/07/08 01:36:07;;;;;;;5.50;3.88;;;15.70;99.90;;;;;;5055869;28;20048;-77
2022/07/08 01:38:34;;;;;;;4.53;3.30;;;15.70;99.90;;;;;;5055718;28;20041;-77
2022/07/08 01:41:01;;;;;;;4.95;3.40;;;15.60;99.90;;;;;;5055088;28;20165;-77
2022/07/08 01:43:27;;;;;;;4.95;4.20;;;15.60;99.90;;;;;;5054711;28;20045;-77
2022/07/08 01:45:55;;;;;;;5.25;3.38;;;15.60;99.90;;;;;;5053999;28;20051;-77
2022/07/08 01:48:22;;;;;;;8.25;4.13;;;15.60;99.90;;;;;;5053956;28;20072;-77
2022/07/08 01:50:49;;;;;;;5.38;3.50;;;15.60;99.90;;;;;;5055098;28;20045;-77
2022/07/08 01:53:16;;;;;;;5.32;3.40;;;15.60;99.90;;;;;;5055500;28;20140;-77
2022/07/08 01:55:43;;;;;;;7.05;4.32;;;15.50;99.90;;;;;;5054833;28;20056;-78
2022/07/08 01:58:09;;;;;;;6.28;3.70;;;15.50;99.90;;;;;;5055702;28;20044;-77
2022/07/08 02:00:36;;;;;;;5.22;3.42;;;15.50;99.90;;;;;;5054600;28;20049;-77
2022/07/08 02:03:03;;;;;;;5.22;3.85;;;15.50;99.90;;;;;;5054969;28;20483;-77
2022/07/08 02:05:32;;;;;;;8.20;4.78;;;15.40;99.90;;;;;;5053667;28;20072;-77
2022/07/08 02:08:02;;;;;;;4.60;3.40;;;15.40;99.90;;;;;;5055576;28;20048;-77
2022/07/08 02:12:18;;;;;;;4.57;3.58;;;15.40;99.90;;;;;;5053915;28;20045;-77
2022/07/08 02:13:17;;;;;;;6.78;3.70;;;15.30;99.90;;;;;;5055614;28;20037;-77
2022/07/08 02:15:45;;;;;;;6.20;3.78;;;15.20;99.90;;;;;;5055644;28;20051;-77
2022/07/08 02:18:12;;;;;;;5.97;3.72;;;15.20;99.90;;;;;;5054045;28;20099;-77
2022/07/08 02:20:39;;;;;;;5.32;3.75;;;15.20;99.90;;;;;;5053803;28;20052;-77
2022/07/08 02:23:06;;;;;;;7.53;4.30;;;15.20;99.90;;;;;;5037053;28;20075;-78
2022/07/08 02:25:32;;;;;;;8.60;4.53;;;15.20;99.90;;;;;;5053533;28;20094;-77
2022/07/08 02:27:59;;;;;;;6.72;3.83;;;15.10;99.90;;;;;;5055124;28;20037;-77
2022/07/08 02:30:26;;;;;;;6.50;4.18;;;15.10;99.90;;;;;;5055099;28;20049;-77
2022/07/08 02:32:53;;;;;;;6.28;3.50;;;15.00;99.90;;;;;;5054579;28;20453;-77
2022/07/08 02:35:20;;;;;;;5.55;3.80;;;15.00;99.90;;;;;;5036923;28;20045;-77
2022/07/08 02:37:47;;;;;;;6.13;3.33;;;15.00;99.90;;;;;;5053060;28;20041;-77
2022/07/08 02:40:14;;;;;;;7.13;4.15;;;14.90;99.90;;;;;;5054666;28;20044;-77
2022/07/08 02:42:41;;;;;;;6.93;4.07;;;14.90;99.90;;;;;;5036918;28;20048;-77
2022/07/08 02:45:08;;;;;;;5.95;3.90;;;14.90;99.90;;;;;;5054208;28;20045;-77
2022/07/08 02:47:35;;;;;;;6.22;4.18;;;14.90;99.90;;;;;;5054124;28;20044;-77
2022/07/08 02:50:02;;;;;;;8.07;4.13;;;14.90;99.90;;;;;;5054389;28;20041;-77
2022/07/08 02:52:29;;;;;;;6.82;3.97;;;14.80;99.90;;;;;;5054535;28;20424;-77
2022/07/08 02:54:55;;;;;;;5.18;4.35;;;14.80;99.90;;;;;;5054406;28;20377;-78
2022/07/08 02:57:22;;;;;;;4.18;3.28;;;14.80;99.90;;;;;;5052739;28;20481;-77
2022/07/08 02:59:49;;;;;;;5.70;4.20;;;14.80;99.90;;;;;;5053912;28;20041;-77
2022/07/08 03:02:16;;;;;;;5.43;3.88;;;14.80;99.90;;;;;;5054206;28;20400;-77
2022/07/08 03:04:43;;;;;;;6.03;4.25;;;14.80;99.90;;;;;;5054121;28;20118;-76
2022/07/08 03:07:10;;;;;;;7.30;4.25;;;14.70;99.90;;;;;;5052854;28;20051;-77
2022/07/08 03:09:37;;;;;;;5.72;3.97;;;14.70;99.90;;;;;;5053879;28;20041;-77
2022/07/08 03:12:04;;;;;;;5.75;4.40;;;14.60;99.90;;;;;;5036902;28;20052;-77
2022/07/08 03:14:31;;;;;;;7.85;4.40;;;14.60;99.90;;;;;;5053424;28;20049;-77
2022/07/08 03:16:58;;;;;;;6.68;3.88;;;14.60;99.90;;;;;;5052259;28;20041;-77
2022/07/08 03:19:26;;;;;;;8.52;4.82;;;14.60;99.90;;;;;;5053423;28;20043;-77
2022/07/08 03:21:54;;;;;;;6.78;4.00;;;14.50;99.90;;;;;;5053702;28;20057;-77
2022/07/08 03:24:21;;;;;;;6.68;4.55;;;14.50;99.90;;;;;;5053903;28;20044;-77
2022/07/08 03:26:48;;;;;;;5.88;4.63;;;14.40;99.90;;;;;;5053908;28;20380;-77
2022/07/08 03:29:15;;;;;;;6.38;4.97;;;14.40;99.90;;;;;;5052365;28;20411;-78
2022/07/08 03:31:42;;;;;;;5.78;4.05;;;14.40;99.90;;;;;;5054895;28;20341;-78
2022/07/08 03:34:09;;;;;;;6.13;4.88;;;14.40;99.90;;;;;;5053790;28;20107;-77
2022/07/08 03:36:36;;;;;;;7.20;4.53;;;14.40;99.90;;;;;;5053639;28;20040;-77
2022/07/08 03:39:03;;;;;;;6.00;4.57;;;14.40;99.90;;;;;;5052515;28;20044;-77
2022/07/08 03:41:29;;;;;;;9.02;5.32;;;14.40;99.90;;;;;;5052673;28;20049;-77
2022/07/08 03:43:56;;;;;;;5.45;4.90;;;14.30;99.90;;;;;;5053777;28;20045;-77
2022/07/08 03:46:24;;;;;;;7.07;5.00;;;14.30;99.90;;;;;;5053620;28;20091;-77
2022/07/08 03:48:51;;;;;;;6.22;4.78;;;14.30;99.90;;;;;;5053219;28;20041;-77
2022/07/08 03:51:20;;;;;;;5.45;4.60;;;14.30;99.90;;;;;;5052296;28;20465;-77
2022/07/08 03:53:47;;;;;;;8.80;5.65;;;14.30;99.90;;;;;;5053880;28;20059;-77
2022/07/08 03:56:14;;;;;;;7.10;5.25;;;14.20;99.90;;;;;;5053408;28;20045;-77
2022/07/08 03:58:41;;;;;;;7.05;5.65;;;14.20;99.90;;;;;;5053758;28;20068;-77
2022/07/08 04:01:08;;;;;;;5.35;4.80;;;14.20;99.90;;;;;;5053764;28;20049;-77
2022/07/08 04:03:35;;;;;;;7.35;5.22;;;14.20;99.90;;;;;;5054103;28;20048;-78
2022/07/08 04:06:01;;;;;;;7.47;5.47;;;14.20;99.90;;;;;;5053390;28;20081;-77
2022/07/08 04:08:28;;;;;;;7.43;5.40;;;14.20;99.90;;;;;;5052931;28;20471;-78
2022/07/08 04:10:56;;;;;;;7.78;5.22;;;14.20;99.90;;;;;;5053109;28;20037;-77
2022/07/08 04:13:25;;;;;;;6.85;5.50;;;14.20;99.90;;;;;;5052017;28;20045;-78
2022/07/08 04:15:52;;;;;;;6.93;5.47;;;14.10;99.90;;;;;;5052991;28;20056;-78
2022/07/08 04:18:19;;;;;;;6.75;5.28;;;14.10;99.90;;;;;;5052587;28;20124;-77
2022/07/08 04:20:46;;;;;;;5.90;5.15;;;14.10;99.90;;;;;;5052871;28;20041;-78
2022/07/08 04:23:13;;;;;;;6.78;5.53;;;14.10;99.90;;;;;;5054278;28;20053;-77
2022/07/08 04:25:40;;;;;;;6.40;5.00;;;14.10;99.90;;;;;;5053147;28;20381;-78
2022/07/08 04:28:07;;;;;;;10.55;6.57;;;14.10;99.90;;;;;;5055551;28;20045;-77
2022/07/08 04:30:34;;;;;;;7.78;5.60;;;14.10;99.90;;;;;;5057594;28;20071;-77
2022/07/08 04:33:02;;;;;;;6.50;5.50;;;14.10;99.90;;;;;;5057348;28;20049;-77
2022/07/08 04:35:28;;;;;;;7.35;5.00;;;14.20;99.90;;;;;;5055532;28;20041;-77
2022/07/08 04:37:55;;;;;;;7.65;5.47;;;14.20;99.90;;;;;;5055400;28;20044;-77
2022/07/08 04:40:27;;;;;;;7.15;5.78;;;14.20;99.90;;;;;;5057612;28;20041;-77
2022/07/08 04:42:55;;;;;;;8.00;5.65;;;14.20;99.90;;;;;;5056536;28;20086;-77
2022/07/08 04:45:22;;;;;;;6.00;5.40;;;14.30;99.90;;;;;;5056288;28;20041;-77
2022/07/08 04:47:49;;;;;;;8.82;5.63;;;14.40;99.90;;;;;;5055282;28;20045;-77
2022/07/08 04:50:16;;;;;;;10.15;5.85;;;14.60;99.90;;;;;;5055349;28;20461;-77
2022/07/08 04:52:43;;;;;;;11.30;5.88;;;15.10;99.90;;;;;;5056040;28;20045;-76
2022/07/08 04:55:27;;;;;;;6.03;5.40;;;15.50;99.90;;;;;;5038705;28;20484;-77
2022/07/08 04:57:59;;;;;;;7.20;5.50;;;15.90;99.90;;;;;;5056790;28;20045;-76
2022/07/08 05:00:26;;;;;;;5.25;4.35;;;16.60;99.90;;;;;;5055831;28;20345;-76
2022/07/08 05:02:53;;;;;;;6.10;5.28;;;17.00;99.90;;;;;;5056209;28;20473;-75
2022/07/08 05:05:21;;;;;;;8.48;5.10;;;17.50;99.90;;;;;;5055158;28;20053;-76
2022/07/08 05:07:48;;;;;;;6.78;5.80;;;17.90;99.90;;;;;;5055755;28;20051;-76
2022/07/08 05:10:19;;;;;;;8.05;4.95;;;18.40;99.90;;;;;;5055801;28;20045;-76
2022/07/08 05:12:46;;;;;;;6.55;4.80;;;18.90;99.90;;;;;;5054678;28;20120;-75
2022/07/08 05:15:12;;;;;;;6.45;4.35;;;19.30;99.90;;;;;;5056221;28;20045;-76
2022/07/08 05:17:39;;;;;;;6.32;5.05;;;19.70;99.90;;;;;;5055967;28;20381;-76
2022/07/08 05:20:08;;;;;;;7.30;4.93;;;20.00;99.90;;;;;;5054563;28;20053;-77
2022/07/08 05:22:35;;;;;;;5.80;5.10;;;20.40;99.90;;;;;;5054319;28;20041;-76
2022/07/08 05:25:05;;;;;;;6.13;4.45;;;20.70;99.90;;;;;;5056152;28;20461;-76
2022/07/08 05:27:32;;;;;;;9.10;5.10;;;21.00;99.90;;;;;;5060067;28;20487;-75
2022/07/08 05:29:59;;;;;;;6.70;4.72;;;21.30;99.90;;;;;;5041236;28;20061;-76
2022/07/08 05:32:27;;;;;;;5.90;5.23;;;21.50;99.90;;;;;;5054210;28;20041;-76
2022/07/08 05:35:00;;;;;;;6.75;4.85;;;21.70;99.90;;;;;;5055391;28;20045;-76
2022/07/08 05:37:28;;;;;;;7.17;4.63;;;21.90;99.90;;;;;;5053958;28;20041;-76
2022/07/08 05:39:56;;;;;;;4.95;4.40;;;22.00;99.90;;;;;;5055065;28;20048;-75
2022/07/08 05:42:22;;;;;;;6.70;5.03;;;22.10;99.90;;;;;;5053870;28;20056;-76
2022/07/08 05:44:49;;;;;;;7.53;5.07;;;22.30;99.90;;;;;;5054523;28;20053;-77
2022/07/08 05:47:16;;;;;;;6.18;4.90;;;22.30;99.90;;;;;;5054690;28;20041;-77
2022/07/08 05:49:43;;;;;;;6.50;4.90;;;22.30;99.90;;;;;;5054191;28;20053;-76
2022/07/08 05:52:10;;;;;;;5.90;5.20;;;22.20;99.90;;;;;;5053971;28;20043;-77
2022/07/08 05:54:38;;;;;;;9.32;5.97;;;22.00;99.90;;;;;;5054791;28;20048;-77
2022/07/08 05:57:05;;;;;;;7.68;5.32;;;21.80;99.90;;;;;;5055531;28;20111;-77
2022/07/08 05:59:32;;;;;;;13.52;6.85;;;21.70;99.90;;;;;;5055219;28;20045;-77
2022/07/08 06:01:59;;;;;;;8.73;6.68;;;21.70;99.90;;;;;;5053834;28;20037;-77
2022/07/08 06:04:26;;;;;;;9.88;6.60;;;21.60;99.90;;;;;;5055099;28;20056;-77
2022/07/08 06:06:53;;;;;;;11.48;5.93;;;21.50;99.90;;;;;;5054269;28;20049;-77
2022/07/08 06:09:20;;;;;;;10.52;6.40;;;21.50;99.90;;;;;;5055893;28;20048;-78
2022/07/08 06:11:47;;;;;;;9.07;7.18;;;21.40;99.90;;;;;;5053717;28;20041;-76
2022/07/08 06:14:14;;;;;;;7.43;6.40;;;21.30;99.90;;;;;;5053633;28;20079;-78
2022/07/08 06:16:41;;;;;;;9.10;6.95;;;21.00;99.90;;;;;;5054900;28;20041;-77
2022/07/08 06:19:08;;;;;;;8.30;6.53;;;20.90;99.90;;;;;;5037246;28;20441;-71
2022/07/08 06:21:35;;;;;;;66.07;59.25;;;20.80;99.90;;;;;;5053791;28;20095;-79
2022/07/08 06:24:02;;;;;;;16.05;13.63;;;20.80;99.90;;;;;;5053159;28;20051;-77
2022/07/08 06:26:29;;;;;;;10.60;7.63;;;20.90;99.90;;;;;;5054200;28;20041;-78
2022/07/08 06:28:56;;;;;;;8.77;6.88;;;20.80;99.90;;;;;;5054287;28;20056;-76
2022/07/08 06:31:24;;;;;;;8.50;6.90;;;20.80;99.90;;;;;;5054406;28;20492;-69
2022/07/08 06:33:57;;;;;;;8.45;7.10;;;20.70;99.90;;;;;;5036372;28;20048;-70
2022/07/08 06:36:24;;;;;;;7.65;5.90;;;20.70;99.90;;;;;;5053985;28;20041;-70
2022/07/08 06:38:51;;;;;;;10.55;6.30;;;20.80;99.90;;;;;;5052842;28;20045;-70
2022/07/08 06:41:18;;;;;;;7.43;6.28;;;20.70;99.90;;;;;;5053503;28;20044;-76
2022/07/08 06:43:48;;;;;;;21.15;18.10;;;20.80;99.90;;;;;;5052931;28;20123;-74
2022/07/08 06:46:15;;;;;;;11.43;8.07;;;20.80;99.90;;;;;;5053040;28;20396;-69
2022/07/08 06:48:42;;;;;;;10.45;7.03;;;20.80;99.90;;;;;;5036055;28;20131;-70
2022/07/08 06:51:10;;;;;;;9.77;7.57;;;20.80;99.90;;;;;;5053929;28;20045;-73
2022/07/08 06:56:23;;;;;;;10.15;5.50;;;20.60;99.90;;;;;;5052627;28;20056;-67
2022/07/08 06:58:50;;;;;;;8.23;6.07;;;20.50;99.90;;;;;;5052103;28;20047;-68
2022/07/08 07:01:17;;;;;;;7.25;6.43;;;20.60;99.90;;;;;;5053209;28;20133;-69
2022/07/08 07:03:44;;;;;;;8.02;6.00;;;20.60;99.90;;;;;;5053228;28;20049;-69
2022/07/08 07:06:11;;;;;;;7.38;6.15;;;20.70;99.90;;;;;;5053233;28;20049;-69
2022/07/08 07:08:38;;;;;;;11.70;7.07;;;21.00;99.90;;;;;;5053687;28;20484;-69
2022/07/08 07:11:07;;;;;;;6.97;6.22;;;20.90;99.90;;;;;;5053193;28;20476;-72
2022/07/08 07:13:36;;;;;;;7.40;5.97;;;21.00;99.90;;;;;;5053483;28;20049;-73
2022/07/08 07:16:03;;;;;;;;;;;20.90;99.90;;;;;;5052784;28;20207;-69
2022/07/08 07:18:30;;;;;;;8.90;6.25;;;21.00;99.90;;;;;;5053723;28;19920;-69
2022/07/08 07:20:57;;;;;;;7.65;6.22;;;21.00;99.90;;;;;;5053262;28;20083;-61
2022/07/08 07:23:24;;;;;;;8.30;6.28;;;21.10;99.90;;;;;;5053351;28;20044;-60
2022/07/08 07:25:51;;;;;;;8.70;5.97;;;21.10;99.90;;;;;;5053241;28;20048;-60
2022/07/08 07:28:18;;;;;;;6.63;5.93;;;21.10;99.90;;;;;;5053641;28;20044;-61
2022/07/08 07:30:45;;;;;;;7.40;5.93;;;21.20;99.90;;;;;;5052684;28;20045;-61
2022/07/08 07:33:15;;;;;;;8.30;5.75;;;21.20;99.90;;;;;;5052236;28;20045;-61
2022/07/08 07:35:41;;;;;;;8.52;5.88;;;21.20;99.90;;;;;;5036310;28;20049;-60
2022/07/08 07:38:08;;;;;;;9.45;6.60;;;21.20;99.90;;;;;;5052331;28;20041;-65
2022/07/08 07:40:35;;;;;;;9.55;6.68;;;21.20;99.90;;;;;;5051985;28;20049;-66
2022/07/08 07:43:02;;;;;;;7.70;4.57;;;21.20;99.90;;;;;;5053712;28;20040;-72
2022/07/08 07:45:29;;;;;;;5.82;4.65;;;21.40;99.90;;;;;;5051749;28;20055;-53
2022/07/08 07:47:56;;;;;;;169.23;151.18;;;21.50;99.90;;;;;;5053240;28;20051;-72
2022/07/08 07:50:23;;;;;;;21.98;19.35;;;21.60;99.90;;;;;;5053118;28;20045;-68
2022/07/08 07:52:50;;;;;;;13.52;9.48;;;21.60;99.90;;;;;;5052716;28;20496;-68
2022/07/08 07:55:17;;;;;;;8.15;6.75;;;21.60;99.90;;;;;;5052623;28;20055;-66
2022/07/08 07:57:46;;;;;;;6.10;5.32;;;21.60;99.90;;;;;;5051349;28;20056;-66
2022/07/08 08:00:15;;;;;;;7.75;5.82;;;21.70;99.90;;;;;;5053289;28;20075;-67
2022/07/08 08:02:42;;;;;;;5.80;5.10;;;21.70;99.90;;;;;;5054929;28;20126;-67
2022/07/08 08:05:09;;;;;;;9.63;5.00;;;21.70;99.90;;;;;;5055626;28;20052;-68
2022/07/08 08:07:40;;;;;;;12.18;6.35;;;21.70;99.90;;;;;;5056076;28;20041;-67
2022/07/08 08:10:08;;;;;;;9.98;6.57;;;21.70;99.90;;;;;;5056309;28;20049;-67
2022/07/08 08:12:34;;;;;;;7.20;5.82;;;21.60;99.90;;;;;;5039425;28;20056;-68
2022/07/08 08:15:01;;;;;;;9.63;7.38;;;21.60;99.90;;;;;;5055133;28;20503;-67
2022/07/08 08:17:28;;;;;;;6.70;6.05;;;21.50;99.90;;;;;;5055139;28;20044;-66
2022/07/08 08:19:55;;;;;;;13.77;6.85;;;21.40;99.90;;;;;;5055375;28;20051;-68
2022/07/08 08:22:22;;;;;;;8.55;6.28;;;21.50;99.90;;;;;;5057048;28;20080;-67
2022/07/08 08:24:49;;;;;;;11.38;6.80;;;21.60;99.90;;;;;;5056545;28;20047;-67
2022/07/08 08:27:16;;;;;;;8.50;6.53;;;21.70;99.90;;;;;;5056200;28;20087;-65
2022/07/08 08:29:43;;;;;;;8.45;7.45;;;21.80;99.90;;;;;;5054955;28;20053;-68
2022/07/08 08:32:10;;;;;;;8.95;8.07;;;21.90;99.90;;;;;;5056361;28;20047;-68
2022/07/08 08:34:37;;;;;;;14.40;8.00;;;21.90;99.90;;;;;;5056056;28;20047;-68
2022/07/08 08:37:04;;;;;;;10.10;7.80;;;22.00;99.90;;;;;;5056131;28;20224;-68
2022/07/08 08:39:31;;;;;;;8.85;7.18;;;22.00;99.90;;;;;;5056870;28;20354;-68
2022/07/08 08:41:59;;;;;;;10.05;7.32;;;22.10;99.90;;;;;;5055058;28;20041;-68
2022/07/08 08:44:26;;;;;;;8.38;6.45;;;22.00;99.90;;;;;;5056647;28;20048;-68
2022/07/08 08:46:53;;;;;;;8.73;6.25;;;22.00;99.90;;;;;;5054885;28;20041;-70
2022/07/08 08:49:20;;;;;;;8.00;7.20;;;22.10;99.90;;;;;;5054897;28;20045;-68
2022/07/08 08:51:50;;;;;;;11.60;7.57;;;22.10;99.90;;;;;;5055719;28;20128;-75
2022/07/08 08:54:18;;;;;;;7.55;6.63;;;22.00;99.90;;;;;;5038513;28;20049;-76
2022/07/08 08:56:49;;;;;;;9.50;7.63;;;22.00;99.90;;;;;;5038734;28;20063;-75
2022/07/08 08:59:23;;;;;;;10.35;7.53;;;22.00;99.90;;;;;;5055490;28;20116;-75
2022/07/08 09:01:56;;;;;;;10.95;7.63;;;22.00;99.90;;;;;;5039448;28;20064;-76
2022/07/08 09:04:23;;;;;;;8.48;5.90;;;22.10;99.90;;;;;;5038560;28;20044;-75
2022/07/08 09:06:50;;;;;;;9.52;7.15;;;22.20;99.90;;;;;;5055523;28;20037;-70
2022/07/08 09:09:17;;;;;;;23.50;21.00;;;22.20;99.90;;;;;;5054281;28;20040;-70
2022/07/08 09:11:45;;;;;;;13.73;10.40;;;22.30;99.90;;;;;;5054207;28;20106;-73
2022/07/08 09:14:16;;;;;;;8.60;7.70;;;22.30;99.90;;;;;;5070392;28;20041;-69
2022/07/08 09:17:09;;;;;;;7.80;7.00;;;22.20;99.90;;;;;;5054236;28;20051;-68
2022/07/08 09:19:41;;;;;;;10.10;7.50;;;22.20;99.90;;;;;;5056101;28;20132;-70
2022/07/08 09:22:16;;;;;;;9.48;7.03;;;22.20;99.90;;;;;;5054856;28;20040;-68
2022/07/08 09:24:43;;;;;;;6.90;6.20;;;22.20;99.90;;;;;;5053764;28;20053;-68
2022/07/08 09:27:10;;;;;;;10.77;7.40;;;22.30;99.90;;;;;;5053950;28;20104;-68
2022/07/08 09:29:55;;;;;;;8.02;5.85;;;22.30;99.90;;;;;;5055079;28;20053;-68
2022/07/08 09:32:24;;;;;;;7.68;5.90;;;22.20;99.90;;;;;;5053874;28;20052;-67
2022/07/08 09:34:51;;;;;;;7.40;5.50;;;22.20;99.90;;;;;;5053768;28;20041;-69
2022/07/08 09:37:19;;;;;;;6.38;4.93;;;22.30;99.90;;;;;;5053700;28;20375;-69
2022/07/08 09:39:46;;;;;;;8.38;5.50;;;22.30;99.90;;;;;;5053590;28;20051;-65
2022/07/08 09:42:15;;;;;;;6.57;4.35;;;22.40;99.90;;;;;;5054680;28;20330;-71
2022/07/08 09:44:43;;;;;;;11.18;6.00;;;22.50;99.90;;;;;;5054197;28;20053;-72
2022/07/08 09:47:14;;;;;;;9.10;5.85;;;22.40;99.90;;;;;;5055618;28;20385;-69
2022/07/08 09:49:42;;;;;;;8.00;5.82;;;22.50;99.90;;;;;;5053551;28;20044;-68
2022/07/08 09:52:10;;;;;;;7.85;4.97;;;22.60;99.90;;;;;;5053554;28;20049;-65
2022/07/08 09:54:37;;;;;;;6.82;5.30;;;22.60;99.90;;;;;;5054133;28;20041;-65
2022/07/08 09:57:04;;;;;;;7.55;5.90;;;22.60;99.90;;;;;;5054753;28;20491;-65
2022/07/08 09:59:32;;;;;;;8.88;4.75;;;22.60;99.90;;;;;;5055194;28;20484;-65
2022/07/08 10:01:59;;;;;;;7.68;5.05;;;22.50;99.90;;;;;;5053566;28;20048;-66
2022/07/08 10:04:26;;;;;;;7.75;5.68;;;22.60;99.90;;;;;;5053661;28;20049;-65
2022/07/08 10:06:54;;;;;;;6.38;4.35;;;22.70;99.90;;;;;;5053174;28;20476;-66
2022/07/08 10:09:22;;;;;;;7.55;5.57;;;22.80;99.90;;;;;;5037203;28;20094;-66
2022/07/08 10:11:50;;;;;;;8.20;5.43;;;22.80;99.90;;;;;;5053468;28;20103;-68
2022/07/08 10:14:17;;;;;;;9.05;4.72;;;22.80;99.90;;;;;;5053121;28;20488;-68
2022/07/08 10:16:46;;;;;;;;;;;22.80;99.90;;;;;;5053559;28;20473;-67
2022/07/08 10:19:20;;;;;;;6.63;4.30;;;22.80;99.70;;;;;;5053839;28;19924;-67
2022/07/08 10:21:50;;;;;;;7.30;5.38;;;22.80;99.90;;;;;;5053300;28;20041;-65
2022/07/08 10:24:22;;;;;;;11.38;6.75;;;22.90;99.30;;;;;;5052837;28;20036;-67
2022/07/08 10:26:49;;;;;;;7.88;5.45;;;22.90;99.80;;;;;;5053324;28;20492;-66
2022/07/08 10:29:15;;;;;;;11.23;6.18;;;22.90;98.80;;;;;;5052417;28;20052;-67
2022/07/08 10:31:53;;;;;;;6.88;5.28;;;23.00;99.30;;;;;;5053650;28;20045;-66
2022/07/08 10:34:35;;;;;;;10.50;5.63;;;23.00;99.00;;;;;;5053546;28;20468;-63
2022/07/08 10:37:03;;;;;;;7.63;5.30;;;23.00;99.60;;;;;;5052554;28;20055;-67
2022/07/08 10:39:40;;;;;;;9.97;6.27;;;23.10;99.40;;;;;;5053934;28;20049;-68
2022/07/08 10:42:10;;;;;;;5.57;4.43;;;23.20;99.40;;;;;;5052711;28;20048;-65
2022/07/08 10:44:43;;;;;;;9.73;4.80;;;23.30;99.60;;;;;;5053130;28;20037;-66
2022/07/08 10:47:10;;;;;;;9.25;4.53;;;23.40;99.30;;;;;;5053453;28;20127;-64
2022/07/08 10:49:41;;;;;;;8.45;5.35;;;23.60;98.90;;;;;;5052238;28;20071;-63
2022/07/08 10:52:10;;;;;;;10.38;5.43;;;23.60;98.40;;;;;;5036092;28;20095;-65
2022/07/08 10:54:37;;;;;;;11.25;4.93;;;23.70;97.90;;;;;;5052135;28;20080;-72
2022/07/08 10:57:08;;;;;;;5.78;4.75;;;23.70;98.00;;;;;;5036128;28;20072;-69
2022/07/08 10:59:38;;;;;;;9.73;5.32;;;23.80;97.10;;;;;;5051955;28;20045;-70
2022/07/08 11:02:05;;;;;;;10.05;5.82;;;23.90;97.70;;;;;;5051917;28;20045;-66
2022/07/08 11:04:35;;;;;;;9.23;5.60;;;24.00;97.60;;;;;;5052475;28;20057;-67
2022/07/08 11:07:29;;;;;;;5.35;4.78;;;24.20;95.90;;;;;;5053492;28;20441;-69
2022/07/08 11:10:03;;;;;;;7.93;4.50;;;24.20;95.40;;;;;;5053040;28;20041;-79
2022/07/08 11:12:40;;;;;;;8.20;4.82;;;24.40;96.10;;;;;;5052272;28;20045;-76
2022/07/08 11:15:16;;;;;;;5.05;4.55;;;24.50;95.20;;;;;;5053054;28;20136;-74
2022/07/08 11:17:43;;;;;;;6.80;4.07;;;24.60;94.90;;;;;;5052795;28;20119;-70
2022/07/08 11:20:14;;;;;;;8.25;5.13;;;24.60;95.00;;;;;;5053139;28;20044;-72
2022/07/08 11:22:43;;;;;;;9.30;4.15;;;24.70;93.90;;;;;;5052066;28;20075;-69
2022/07/08 11:25:11;;;;;;;;;;;24.70;93.70;;;;;;5053228;28;20044;-68
2022/07/08 11:27:38;;;;;;;6.63;4.10;;;24.80;93.90;;;;;;5084802;28;19917;-68
2022/07/08 11:30:07;;;;;;;74.50;66.90;;;24.80;93.80;;;;;;5051674;28;20064;-80
2022/07/08 11:32:34;;;;;;;109.90;99.78;;;24.90;93.80;;;;;;5053570;28;20044;-67
2022/07/08 11:35:01;;;;;;;14.77;11.32;;;25.20;94.40;;;;;;5068279;28;20055;-66
2022/07/08 11:37:32;;;;;;;10.20;6.28;;;25.40;92.90;;;;;;5052159;28;20045;-69
2022/07/08 11:40:01;;;;;;;10.15;6.10;;;25.40;93.50;;;;;;5053030;28;20067;-70
2022/07/08 11:42:28;;;;;;;9.52;4.93;;;25.30;92.30;;;;;;5053031;28;20040;-74
2022/07/08 11:44:55;;;;;;;8.05;4.93;;;25.40;92.50;;;;;;5053066;28;20051;-68
2022/07/08 11:47:22;;;;;;;7.38;4.40;;;25.50;92.40;;;;;;5051623;28;20052;-58
2022/07/08 11:49:49;;;;;;;7.20;4.88;;;25.60;92.30;;;;;;5052570;28;20508;-57
2022/07/08 11:52:17;;;;;;;5.22;4.47;;;25.60;92.00;;;;;;5052830;28;20465;-58
2022/07/08 11:54:48;;;;;;;5.47;4.18;;;25.60;92.70;;;;;;5053350;28;20044;-57
2022/07/08 11:57:15;;;;;;;8.38;3.58;;;25.70;91.00;;;;;;5052796;28;20122;-58
2022/07/08 11:59:44;;;;;;;6.70;3.40;;;25.80;90.90;;;;;;5051515;28;20393;-57
2022/07/08 12:02:11;;;;;;;4.10;2.85;;;25.70;90.30;;;;;;5051549;28;20136;-58
2022/07/08 12:04:37;;;;;;;4.82;3.67;;;25.80;89.30;;;;;;5052468;28;20039;-64
2022/07/08 12:07:21;;;;;;;5.20;3.35;;;25.90;90.10;;;;;;5051230;28;20048;-64
2022/07/08 12:09:53;;;;;;;4.70;3.15;;;25.90;89.40;;;;;;5051114;28;20045;-68
2022/07/08 12:12:22;;;;;;;6.07;3.60;;;26.00;90.20;;;;;;5052207;28;20052;-70
2022/07/08 12:14:49;;;;;;;6.72;4.30;;;26.10;89.20;;;;;;5052686;28;20041;-64
2022/07/08 12:17:26;;;;;;;8.18;4.07;;;26.10;88.90;;;;;;5051518;28;20358;-70
2022/07/08 12:19:56;;;;;;;4.32;3.40;;;26.10;88.50;;;;;;5050969;28;20052;-71
2022/07/08 12:22:48;;;;;;;7.35;4.35;;;26.20;88.50;;;;;;5050957;28;20051;-70
2022/07/08 12:25:17;;;;;;;7.13;3.60;;;26.30;86.60;;;;;;5052322;28;20526;-67
2022/07/08 12:27:47;;;;;;;6.35;3.85;;;26.20;87.50;;;;;;5052619;28;20056;-72
2022/07/08 12:30:14;;;;;;;15.00;13.38;;;26.30;88.30;;;;;;5051509;28;20064;-68
2022/07/08 12:32:43;;;;;;;9.20;6.72;;;26.30;85.60;;;;;;5051166;28;20049;-70
2022/07/08 12:35:11;;;;;;;5.85;4.05;;;26.50;87.00;;;;;;5051234;28;20044;-70
2022/07/08 12:37:38;;;;;;;5.63;3.10;;;26.60;87.30;;;;;;5052589;28;20041;-70
2022/07/08 12:40:15;;;;;;;3.72;2.67;;;26.70;84.90;;;;;;5051213;28;20053;-70
2022/07/08 12:43:02;;;;;;;4.88;3.30;;;26.70;80.90;;;;;;5051671;28;20368;-69
2022/07/08 12:45:31;;;;;;;;;;;26.70;80.20;;;;;;5052305;28;20574;-70
2022/07/08 12:47:58;;;;;;;5.55;2.90;;;26.60;81.90;;;;;;5052862;28;19916;-70
2022/07/08 12:50:26;;;;;;;4.68;2.97;;;26.50;82.90;;;;;;5055057;28;20048;-70
2022/07/08 12:52:54;;;;;;;4.95;2.53;;;26.50;83.30;;;;;;5055603;28;20041;-70